TimeCST,TemperatureF,Dew PointF,Humidity,Sea Level PressureIn,VisibilityMPH,Wind Direction,Wind SpeedMPH,Gust SpeedMPH,PrecipitationIn,Events,Conditions,WindDirDegrees,DateUTC
12:56 AM,60.1,57.0,90,30.08,10.0,South,4.6,-,N/A,,Clear,170,2012-11-08 06:56:00
1:56 AM,59.0,55.9,90,30.08,10.0,South,5.8,-,N/A,,Clear,190,2012-11-08 07:56:00
2:56 AM,57.9,55.9,93,30.07,10.0,South,3.5,-,N/A,,Clear,170,2012-11-08 08:56:00
3:56 AM,57.0,55.0,93,30.06,9.0,South,5.8,-,N/A,,Clear,180,2012-11-08 09:56:00
4:56 AM,59.0,57.0,93,30.07,9.0,South,6.9,-,N/A,,Clear,170,2012-11-08 10:56:00
5:56 AM,57.9,55.9,93,30.08,9.0,SSE,3.5,-,N/A,,Clear,160,2012-11-08 11:56:00
6:56 AM,57.0,55.9,96,30.09,6.0,Calm,Calm,-,N/A,,Partly Cloudy,0,2012-11-08 12:56:00
7:56 AM,64.0,61.0,90,30.11,7.0,SSE,5.8,-,N/A,,Partly Cloudy,150,2012-11-08 13:56:00
8:56 AM,75.0,63.0,66,30.13,9.0,South,11.5,-,N/A,,Partly Cloudy,170,2012-11-08 14:56:00
9:56 AM,80.1,63.0,56,30.13,10.0,SSE,17.3,27.6,N/A,,Scattered Clouds,160,2012-11-08 15:56:00
10:56 AM,84.0,61.0,46,30.12,10.0,SSE,17.3,25.3,N/A,,Scattered Clouds,160,2012-11-08 16:56:00
11:56 AM,86.0,60.1,41,30.08,10.0,SE,16.1,-,N/A,,Scattered Clouds,140,2012-11-08 17:56:00
12:56 PM,86.0,59.0,40,30.04,10.0,ESE,20.7,27.6,N/A,,Scattered Clouds,120,2012-11-08 18:56:00
1:56 PM,87.1,60.1,40,30.01,10.0,SE,17.3,26.5,N/A,,Scattered Clouds,130,2012-11-08 19:56:00
2:56 PM,86.0,64.0,48,30.00,10.0,SE,20.7,28.8,N/A,,Scattered Clouds,140,2012-11-08 20:56:00
3:56 PM,82.9,64.0,53,30.00,10.0,SE,23.0,31.1,N/A,,Scattered Clouds,130,2012-11-08 21:56:00
4:56 PM,80.1,64.0,58,30.00,10.0,SE,23.0,31.1,N/A,,Scattered Clouds,130,2012-11-08 22:56:00
5:56 PM,77.0,64.0,64,30.01,10.0,SE,16.1,26.5,N/A,,Clear,130,2012-11-08 23:56:00
6:56 PM,75.9,64.0,67,30.03,10.0,SE,18.4,25.3,N/A,,Clear,130,2012-11-09 00:56:00
7:56 PM,75.0,64.0,69,30.05,10.0,SE,15.0,20.7,N/A,,Clear,140,2012-11-09 01:56:00
8:56 PM,73.0,63.0,71,30.05,10.0,SSE,9.2,-,N/A,,Clear,150,2012-11-09 02:56:00
9:56 PM,71.1,63.0,75,30.05,10.0,SE,8.1,-,N/A,,Clear,140,2012-11-09 03:56:00
10:56 PM,70.0,63.0,78,30.05,10.0,SE,8.1,-,N/A,,Clear,140,2012-11-09 04:56:00
11:56 PM,70.0,63.0,78,30.05,10.0,SSE,10.4,-,N/A,,Clear,150,2012-11-09 05:56:00